Time;durP1;ratioP1;P1;durP2;ratioP2;P2;SDS_P1;SDS_P2;PMS_P1;PMS_P2;Temp;Humidity;BMP_temperature;BMP_pressure;BME280_temperature;BME280_humidity;BME280_pressure;Samples;Min_cycle;Max_cycle;Signal;HPM_P1;HPM_P2
2022/08/08 00:01:05;;;;;;;0.50;0.30;;;20.50;34.80;;;;;;2556534;53;20933;-66
2022/08/08 00:04:01;;;;;;;0.62;0.40;;;20.50;34.50;;;;;;2333534;54;21040;-66
2022/08/08 00:06:56;;;;;;;0.95;0.35;;;20.40;34.90;;;;;;2319754;54;21116;-66
2022/08/08 00:09:35;;;;;;;1.42;0.40;;;20.40;35.50;;;;;;2340220;54;20948;-66
2022/08/08 00:12:04;;;;;;;1.45;0.60;;;20.30;35.20;;;;;;2554913;53;20952;-67
2022/08/08 00:15:20;;;;;;;0.95;0.40;;;20.20;35.10;;;;;;2341608;54;21016;-67
2022/08/08 00:18:04;;;;;;;1.25;0.37;;;20.20;35.70;;;;;;2587993;53;20957;-66
2022/08/08 00:20:52;;;;;;;0.82;0.40;;;20.10;35.60;;;;;;2318736;55;20977;-68
2022/08/08 00:23:47;;;;;;;1.23;0.43;;;20.00;35.80;;;;;;2587947;53;21032;-67
2022/08/08 00:26:38;;;;;;;0.45;0.30;;;20.00;35.70;;;;;;2341110;55;21035;-70
2022/08/08 00:29:28;;;;;;;0.45;0.30;;;19.90;35.80;;;;;;2358609;53;20992;-66
2022/08/08 00:32:01;;;;;;;2.62;0.40;;;19.90;35.50;;;;;;2342087;55;20956;-66
2022/08/08 00:36:23;;;;;;;0.88;0.40;;;19.80;35.60;;;;;;2587962;53;21730;-67
2022/08/08 00:39:29;;;;;;;0.75;0.40;;;19.70;36.00;;;;;;2342015;54;21474;-66
2022/08/08 00:45:21;;;;;;;0.52;0.30;;;19.70;36.00;;;;;;2354632;53;21001;-68
2022/08/08 00:49:40;;;;;;;0.98;0.40;;;19.60;36.00;;;;;;2365923;53;21402;-65
2022/08/08 00:53:39;;;;;;;0.88;0.30;;;19.50;36.00;;;;;;2342111;54;20961;-66
2022/08/08 00:57:02;;;;;;;0.25;0.20;;;19.50;35.80;;;;;;2299607;55;21663;-66
2022/08/08 00:59:53;;;;;;;0.93;0.40;;;19.40;36.30;;;;;;2553641;53;20955;-66
2022/08/08 01:06:28;;;;;;;0.85;0.40;;;19.30;36.20;;;;;;2326160;54;21070;-66
2022/08/08 01:10:34;;;;;;;0.35;0.20;;;19.20;36.30;;;;;;2401969;53;21494;-67
2022/08/08 01:13:34;;;;;;;0.30;0.30;;;19.10;36.50;;;;;;2502536;53;20942;-65
2022/08/08 01:16:37;;;;;;;1.00;0.40;;;19.00;36.40;;;;;;2397252;53;20971;-67
2022/08/08 01:19:43;;;;;;;0.70;0.40;;;19.00;36.90;;;;;;2324986;54;21200;-67
2022/08/08 01:23:58;;;;;;;1.20;0.50;;;18.90;36.90;;;;;;2491137;53;21030;-66
2022/08/08 01:28:53;;;;;;;0.55;0.30;;;18.90;37.20;;;;;;2341271;54;20942;-66
2022/08/08 01:31:58;;;;;;;0.90;0.40;;;18.80;37.10;;;;;;2588874;53;20946;-66
2022/08/08 01:34:59;;;;;;;0.62;0.40;;;18.70;36.90;;;;;;2566695;53;21025;-66
2022/08/08 01:44:20;;;;;;;1.27;0.50;;;18.70;37.20;;;;;;2560235;53;21695;-68
2022/08/08 01:47:08;;;;;;;0.50;0.30;;;18.60;37.10;;;;;;2314638;54;21018;-65
2022/08/08 01:51:45;;;;;;;0.75;0.40;;;18.50;36.80;;;;;;2314615;54;21034;-66
2022/08/08 01:56:02;;;;;;;0.50;0.30;;;18.50;37.40;;;;;;2315305;54;21844;-65
2022/08/08 02:00:14;;;;;;;0.77;0.30;;;18.40;37.50;;;;;;2314515;54;21891;-66
2022/08/08 02:09:23;;;;;;;0.73;0.35;;;18.30;37.20;;;;;;2313917;54;20997;-67
2022/08/08 02:11:50;;;;;;;0.43;0.30;;;18.20;37.60;;;;;;2292343;55;21007;-65
2022/08/08 02:14:45;;;;;;;0.98;0.40;;;18.20;37.10;;;;;;2313733;54;20941;-66
2022/08/08 02:17:26;;;;;;;0.82;0.32;;;18.10;37.90;;;;;;2312822;55;21731;-68
2022/08/08 02:23:02;;;;;;;1.00;0.45;;;18.10;37.50;;;;;;2339507;54;20938;-66
2022/08/08 02:25:48;;;;;;;0.90;0.37;;;18.00;37.70;;;;;;2315736;54;20955;-66
2022/08/08 02:28:38;;;;;;;0.37;0.28;;;18.00;38.20;;;;;;2305864;54;20978;-65
2022/08/08 02:31:30;;;;;;;0.60;0.40;;;17.90;38.10;;;;;;2305519;54;21726;-67
2022/08/08 02:34:17;;;;;;;0.98;0.50;;;17.90;38.10;;;;;;2301198;54;20953;-65
2022/08/08 02:37:23;;;;;;;0.75;0.30;;;17.80;38.50;;;;;;2315667;54;21170;-66
2022/08/08 02:40:03;;;;;;;0.65;0.40;;;17.80;38.60;;;;;;2315506;55;21068;-65
2022/08/08 02:46:49;;;;;;;1.02;0.37;;;17.80;38.30;;;;;;2337499;53;21008;-67
2022/08/08 02:52:07;;;;;;;0.62;0.32;;;17.80;38.60;;;;;;2342500;54;21006;-66
2022/08/08 02:59:58;;;;;;;0.73;0.40;;;17.70;38.40;;;;;;2323203;55;21005;-66
2022/08/08 03:04:16;;;;;;;0.70;0.30;;;17.60;38.30;;;;;;2342315;54;20945;-65
2022/08/08 03:07:13;;;;;;;0.47;0.32;;;17.50;38.50;;;;;;2342626;55;21061;-67
2022/08/08 03:10:31;;;;;;;0.65;0.40;;;17.40;38.70;;;;;;2315056;54;20983;-67
2022/08/08 03:15:45;;;;;;;2.12;0.50;;;17.40;39.00;;;;;;2316875;54;21235;-66
2022/08/08 03:18:21;;;;;;;0.82;0.50;;;17.40;39.10;;;;;;2381464;53;21044;-65
2022/08/08 03:20:49;;;;;;;0.98;0.40;;;17.30;38.80;;;;;;2344178;55;20940;-65
2022/08/08 03:23:16;;;;;;;1.23;0.60;;;17.30;38.80;;;;;;2342216;54;20913;-65
2022/08/08 03:25:43;;;;;;;1.12;0.52;;;17.30;39.00;;;;;;2342362;54;20980;-66
2022/08/08 03:28:32;;;;;;;1.20;0.50;;;17.20;39.20;;;;;;2343214;54;20973;-65
2022/08/08 03:30:58;;;;;;;1.08;0.50;;;17.20;39.30;;;;;;2342998;54;20925;-66
2022/08/08 03:33:24;;;;;;;2.35;0.50;;;17.20;39.30;;;;;;2341212;54;20995;-65
2022/08/08 03:35:51;;;;;;;1.25;0.52;;;17.20;39.50;;;;;;2342047;54;21056;-65
2022/08/08 03:38:21;;;;;;;1.23;0.50;;;17.10;39.50;;;;;;2342042;55;20941;-66
2022/08/08 03:40:51;;;;;;;2.00;0.73;;;17.10;39.60;;;;;;2344710;55;20944;-67
2022/08/08 03:43:18;;;;;;;1.50;0.70;;;17.10;39.90;;;;;;2342273;54;21052;-68
2022/08/08 03:45:45;;;;;;;1.15;0.52;;;17.10;39.80;;;;;;2325380;54;21085;-66
2022/08/08 03:48:13;;;;;;;1.00;0.50;;;17.10;39.90;;;;;;2304107;55;20941;-66
2022/08/08 03:51:15;;;;;;;1.77;0.65;;;17.00;40.10;;;;;;2326586;54;21068;-65
2022/08/08 03:53:42;;;;;;;1.37;0.70;;;17.00;40.70;;;;;;2345367;53;21577;-66
2022/08/08 03:56:09;;;;;;;1.08;0.50;;;17.00;39.90;;;;;;2350925;53;20980;-67
2022/08/08 03:58:36;;;;;;;1.35;0.60;;;16.90;39.90;;;;;;2343143;54;20984;-66
2022/08/08 04:01:04;;;;;;;1.20;0.60;;;16.90;40.00;;;;;;2319248;54;21470;-64
2022/08/08 04:03:34;;;;;;;1.00;0.50;;;16.90;40.20;;;;;;2344364;54;21153;-66
2022/08/08 04:06:07;;;;;;;1.33;0.55;;;16.90;40.30;;;;;;2313798;54;21533;-66
2022/08/08 04:08:35;;;;;;;1.48;0.60;;;16.80;40.30;;;;;;2332171;54;21020;-65
2022/08/08 04:11:05;;;;;;;1.27;0.50;;;16.80;40.30;;;;;;2342295;54;21024;-67
2022/08/08 04:13:32;;;;;;;1.25;0.60;;;16.80;40.40;;;;;;2342002;55;20952;-65
2022/08/08 04:15:59;;;;;;;1.48;0.60;;;16.80;40.50;;;;;;2341966;54;21453;-65
2022/08/08 04:18:25;;;;;;;1.92;0.62;;;16.80;40.50;;;;;;2433053;53;20927;-66
2022/08/08 04:20:53;;;;;;;1.40;0.68;;;16.70;40.70;;;;;;2342147;54;21359;-65
2022/08/08 04:23:19;;;;;;;1.33;0.60;;;16.70;41.00;;;;;;2318886;55;20973;-65
2022/08/08 04:25:45;;;;;;;2.40;0.75;;;16.70;41.20;;;;;;2342149;54;20968;-65
2022/08/08 04:28:12;;;;;;;1.62;0.70;;;16.70;41.10;;;;;;2318614;54;20917;-65
2022/08/08 04:30:40;;;;;;;1.33;0.68;;;16.70;41.40;;;;;;2341855;54;21004;-66
2022/08/08 04:33:06;;;;;;;1.55;0.77;;;16.70;41.30;;;;;;2316548;54;21009;-65
2022/08/08 04:35:33;;;;;;;1.45;0.60;;;16.70;41.30;;;;;;2340324;54;21016;-68
2022/08/08 04:38:02;;;;;;;2.12;0.75;;;16.70;41.20;;;;;;2337479;54;20957;-67
2022/08/08 04:40:29;;;;;;;1.60;0.80;;;16.60;41.20;;;;;;2310766;54;20925;-66
2022/08/08 04:42:56;;;;;;;1.65;0.90;;;16.60;41.40;;;;;;2314737;55;20985;-65
2022/08/08 04:45:25;;;;;;;1.33;0.60;;;16.70;41.50;;;;;;2340460;54;21837;-68
2022/08/08 04:47:52;;;;;;;1.37;0.60;;;16.60;41.40;;;;;;2340997;54;21384;-66
2022/08/08 04:50:20;;;;;;;1.17;0.60;;;16.60;41.40;;;;;;2341254;55;21656;-65
2022/08/08 04:52:47;;;;;;;2.28;0.68;;;16.60;41.40;;;;;;2341699;54;20969;-65
2022/08/08 04:55:13;;;;;;;1.62;0.70;;;16.50;41.50;;;;;;2341685;54;20992;-65
2022/08/08 04:57:40;;;;;;;1.67;0.80;;;16.50;41.50;;;;;;2341558;55;20949;-65
2022/08/08 05:00:09;;;;;;;2.00;0.80;;;16.50;41.60;;;;;;2491783;53;20924;-65
2022/08/08 05:02:38;;;;;;;1.62;0.60;;;16.50;41.70;;;;;;2556892;53;21446;-69
2022/08/08 05:05:05;;;;;;;1.85;0.60;;;16.50;41.80;;;;;;2385591;53;20964;-65
2022/08/08 05:07:32;;;;;;;1.83;0.80;;;16.50;41.80;;;;;;2342179;55;20980;-66
2022/08/08 05:09:58;;;;;;;1.50;0.70;;;16.50;41.80;;;;;;2342947;54;20969;-67
2022/08/08 05:12:25;;;;;;;1.75;0.73;;;16.50;41.90;;;;;;2342130;54;20980;-68
2022/08/08 05:14:51;;;;;;;1.50;0.70;;;16.50;42.10;;;;;;2341858;55;21009;-65
2022/08/08 05:17:18;;;;;;;1.35;0.60;;;16.50;42.30;;;;;;2313471;54;20949;-66
2022/08/08 05:19:45;;;;;;;1.30;0.62;;;16.50;42.30;;;;;;2324901;54;21000;-66
2022/08/08 05:22:14;;;;;;;2.65;0.85;;;16.50;42.30;;;;;;2323167;54;20917;-69
2022/08/08 05:24:41;;;;;;;1.17;0.60;;;16.50;42.40;;;;;;2337096;55;21446;-66
2022/08/08 05:27:07;;;;;;;1.55;0.70;;;16.50;42.50;;;;;;2341866;54;21096;-67
2022/08/08 05:29:35;;;;;;;1.25;0.50;;;16.60;42.60;;;;;;2341784;54;20997;-68
2022/08/08 05:32:03;;;;;;;1.50;0.70;;;16.60;42.70;;;;;;2321289;54;20931;-66
2022/08/08 05:35:32;;;;;;;1.25;0.68;;;16.60;42.70;;;;;;2314795;54;21010;-66
2022/08/08 05:38:05;;;;;;;1.10;0.60;;;16.70;43.40;;;;;;2317824;54;20938;-65
2022/08/08 05:40:33;;;;;;;1.30;0.50;;;16.70;43.00;;;;;;2321796;54;21019;-66
2022/08/08 05:43:02;;;;;;;1.58;0.60;;;16.70;42.80;;;;;;2334607;54;21056;-67
2022/08/08 05:45:32;;;;;;;1.85;0.60;;;16.70;42.90;;;;;;2327219;54;22425;-65
2022/08/08 05:48:00;;;;;;;1.17;0.60;;;16.70;43.10;;;;;;2341605;55;21025;-66
2022/08/08 05:50:28;;;;;;;1.30;0.60;;;16.80;43.30;;;;;;2320222;54;21067;-67
2022/08/08 05:52:54;;;;;;;2.42;0.73;;;16.90;43.60;;;;;;2555758;53;20926;-66
2022/08/08 05:55:22;;;;;;;1.90;0.68;;;16.90;43.60;;;;;;2341911;54;21008;-67
2022/08/08 05:57:51;;;;;;;2.10;0.90;;;16.90;43.70;;;;;;2321656;54;20988;-66
2022/08/08 06:00:18;;;;;;;1.10;0.60;;;17.00;44.00;;;;;;2317511;54;21751;-67
2022/08/08 06:05:31;;;;;;;2.00;0.80;;;17.10;44.10;;;;;;2320238;54;20948;-66
2022/08/08 06:07:58;;;;;;;1.50;0.60;;;17.20;44.00;;;;;;2341585;54;20987;-68
2022/08/08 06:10:31;;;;;;;1.42;0.70;;;17.20;44.00;;;;;;2537788;53;20968;-66
2022/08/08 06:12:57;;;;;;;1.23;0.70;;;17.30;44.10;;;;;;2329988;54;20992;-68
2022/08/08 06:15:24;;;;;;;1.20;0.60;;;17.40;44.10;;;;;;2342180;55;20964;-69
2022/08/08 06:17:50;;;;;;;1.52;0.70;;;17.50;44.20;;;;;;2317408;54;21044;-68
2022/08/08 06:20:17;;;;;;;1.48;0.70;;;17.60;44.20;;;;;;2341998;54;20960;-68
2022/08/08 06:22:43;;;;;;;1.73;0.80;;;17.70;44.30;;;;;;2342192;54;20940;-67
2022/08/08 06:25:11;;;;;;;1.48;0.70;;;17.70;44.40;;;;;;2342435;55;20933;-65
2022/08/08 06:27:59;;;;;;;1.30;0.70;;;17.80;44.50;;;;;;2341179;55;21004;-66
2022/08/08 06:30:25;;;;;;;0.95;0.52;;;17.90;44.90;;;;;;2318516;54;20909;-66
2022/08/08 06:32:55;;;;;;;1.52;0.70;;;18.00;44.50;;;;;;2343087;54;20943;-66
2022/08/08 06:35:22;;;;;;;1.85;0.70;;;18.10;44.60;;;;;;2345359;55;20940;-66
2022/08/08 06:38:07;;;;;;;1.67;0.70;;;18.20;44.60;;;;;;2316025;54;20945;-67
2022/08/08 06:40:33;;;;;;;2.10;0.85;;;18.30;44.90;;;;;;2321631;54;21025;-66
2022/08/08 06:43:07;;;;;;;1.55;0.60;;;18.40;44.80;;;;;;2320431;54;20932;-66
2022/08/08 06:45:33;;;;;;;2.50;0.80;;;18.60;45.00;;;;;;2341564;54;20937;-67
2022/08/08 06:48:00;;;;;;;1.90;0.70;;;18.60;44.80;;;;;;2318193;54;20985;-67
2022/08/08 06:50:28;;;;;;;2.37;0.90;;;18.70;44.90;;;;;;2323771;54;20916;-66
2022/08/08 06:52:54;;;;;;;1.42;0.65;;;18.80;44.90;;;;;;2336596;54;20937;-68
2022/08/08 06:55:22;;;;;;;2.58;0.80;;;19.00;44.90;;;;;;2318835;54;21391;-66
2022/08/08 06:57:48;;;;;;;2.10;0.80;;;19.10;44.90;;;;;;2309181;55;21073;-66
2022/08/08 07:00:16;;;;;;;1.75;0.80;;;19.20;44.80;;;;;;2321746;54;20977;-66
2022/08/08 07:02:53;;;;;;;1.60;0.62;;;19.30;44.90;;;;;;2320691;54;20921;-68
2022/08/08 07:05:32;;;;;;;1.30;0.62;;;19.40;45.10;;;;;;2342247;54;21000;-69
2022/08/08 07:08:22;;;;;;;1.25;0.52;;;19.60;45.10;;;;;;2443255;53;20953;-69
2022/08/08 07:10:50;;;;;;;1.95;0.77;;;19.70;45.10;;;;;;2588538;53;21068;-70
2022/08/08 07:13:17;;;;;;;1.73;0.65;;;19.80;44.90;;;;;;2341507;55;21001;-66
2022/08/08 07:16:02;;;;;;;1.52;0.70;;;19.90;44.80;;;;;;2322053;54;21795;-67
2022/08/08 07:18:37;;;;;;;1.48;0.75;;;20.10;45.00;;;;;;2579067;53;20949;-69
2022/08/08 07:21:06;;;;;;;2.60;1.00;;;20.20;45.00;;;;;;2323672;54;21050;-67
2022/08/08 07:23:49;;;;;;;1.67;0.80;;;20.30;44.90;;;;;;2332513;54;20969;-68
2022/08/08 07:26:16;;;;;;;1.42;0.68;;;20.40;45.00;;;;;;2327429;54;20959;-67
2022/08/08 07:28:42;;;;;;;3.08;0.88;;;20.60;44.90;;;;;;2340174;53;20984;-67
2022/08/08 07:31:09;;;;;;;3.62;1.00;;;20.70;44.80;;;;;;2548125;53;20957;-68
2022/08/08 07:33:35;;;;;;;1.85;0.77;;;20.80;44.80;;;;;;2320976;54;21024;-69
2022/08/08 07:36:06;;;;;;;2.15;0.65;;;20.90;44.80;;;;;;2503476;53;21585;-67
2022/08/08 07:38:35;;;;;;;3.17;1.00;;;21.10;44.80;;;;;;2384983;53;20961;-68
2022/08/08 07:41:03;;;;;;;2.30;0.80;;;21.20;44.80;;;;;;2314008;54;20984;-68
2022/08/08 07:43:32;;;;;;;2.05;0.98;;;21.30;44.60;;;;;;2340981;54;20972;-69
2022/08/08 07:45:59;;;;;;;2.70;1.00;;;21.50;44.70;;;;;;2341344;54;20944;-68
2022/08/08 07:48:27;;;;;;;2.08;0.80;;;21.60;44.50;;;;;;2406038;53;21010;-68
2022/08/08 07:50:57;;;;;;;3.70;0.82;;;21.80;44.60;;;;;;2342251;54;21319;-66
2022/08/08 07:53:37;;;;;;;2.20;0.73;;;21.90;44.40;;;;;;2403164;53;21028;-67
2022/08/08 07:56:05;;;;;;;2.15;0.70;;;22.00;44.20;;;;;;2342936;55;20984;-70
2022/08/08 07:58:35;;;;;;;1.65;0.60;;;22.10;44.10;;;;;;2493772;53;21678;-67
2022/08/08 08:01:10;;;;;;;1.67;0.70;;;22.20;44.10;;;;;;2438002;53;20957;-66
2022/08/08 08:03:44;;;;;;;1.92;0.80;;;22.40;44.20;;;;;;2588401;53;20957;-67
2022/08/08 08:06:12;;;;;;;2.03;0.80;;;22.50;44.00;;;;;;2588727;53;21508;-68
2022/08/08 08:08:40;;;;;;;1.37;0.62;;;22.60;43.80;;;;;;2341135;55;21020;-67
2022/08/08 08:11:11;;;;;;;1.60;0.70;;;22.70;43.60;;;;;;2318532;55;20985;-68
2022/08/08 08:14:02;;;;;;;1.75;0.80;;;22.80;43.50;;;;;;2367252;53;20983;-67
2022/08/08 08:16:30;;;;;;;1.48;0.60;;;22.90;43.30;;;;;;2524460;53;20993;-67
2022/08/08 08:19:03;;;;;;;3.22;0.75;;;23.00;43.10;;;;;;2386668;54;20952;-68
2022/08/08 08:22:31;;;;;;;1.30;0.50;;;23.10;43.00;;;;;;2318296;54;20933;-66
2022/08/08 08:24:58;;;;;;;1.40;0.60;;;23.20;43.00;;;;;;2588527;53;21004;-66
2022/08/08 08:27:26;;;;;;;1.30;0.60;;;23.40;42.90;;;;;;2342585;55;21012;-70
2022/08/08 08:29:52;;;;;;;2.20;0.60;;;23.50;42.70;;;;;;2342043;55;21056;-70
2022/08/08 08:32:19;;;;;;;2.42;0.60;;;23.60;42.60;;;;;;2588657;53;21072;-67
2022/08/08 08:34:47;;;;;;;1.67;0.50;;;23.70;42.50;;;;;;2478125;53;21524;-68
2022/08/08 08:37:15;;;;;;;2.47;0.90;;;23.80;42.20;;;;;;2342415;55;20988;-67
2022/08/08 08:39:41;;;;;;;1.65;0.70;;;23.90;42.20;;;;;;2332353;54;21105;-69
2022/08/08 08:42:11;;;;;;;2.90;0.60;;;24.00;42.20;;;;;;2305382;55;21005;-67
2022/08/08 08:44:37;;;;;;;1.08;0.57;;;24.10;42.00;;;;;;2383263;54;21297;-68
2022/08/08 08:47:04;;;;;;;1.02;0.40;;;24.20;41.90;;;;;;2588135;53;21012;-69
2022/08/08 08:49:54;;;;;;;2.00;0.60;;;24.30;41.60;;;;;;2342843;55;20928;-70
2022/08/08 08:52:21;;;;;;;2.08;0.62;;;24.40;40.90;;;;;;2330926;54;20964;-68
2022/08/08 08:54:49;;;;;;;3.08;0.50;;;24.50;41.50;;;;;;2551615;53;21760;-69
2022/08/08 08:57:18;;;;;;;1.45;0.40;;;24.60;41.20;;;;;;2325940;54;20960;-66
2022/08/08 08:59:45;;;;;;;2.58;0.60;;;24.70;40.90;;;;;;2374687;54;21110;-68
2022/08/08 09:02:18;;;;;;;1.73;0.52;;;24.80;40.70;;;;;;2318884;54;21424;-68
2022/08/08 09:04:46;;;;;;;2.03;0.70;;;24.90;40.50;;;;;;2584424;53;21024;-68
2022/08/08 09:07:18;;;;;;;0.80;0.40;;;25.00;40.50;;;;;;2588073;53;21136;-68
2022/08/08 09:09:47;;;;;;;1.48;0.60;;;25.10;40.50;;;;;;2587137;53;21076;-68
2022/08/08 09:12:15;;;;;;;3.92;0.75;;;25.20;40.40;;;;;;2327662;54;20956;-67
2022/08/08 09:14:42;;;;;;;1.37;0.50;;;25.30;40.20;;;;;;2553903;53;21656;-70
2022/08/08 09:17:09;;;;;;;2.67;0.70;;;25.30;40.00;;;;;;2324393;54;21875;-68
2022/08/08 09:19:37;;;;;;;1.50;0.60;;;25.50;40.10;;;;;;2323858;54;21681;-69
2022/08/08 09:22:05;;;;;;;2.42;0.70;;;25.60;40.10;;;;;;2548110;54;20961;-69
2022/08/08 09:24:32;;;;;;;1.67;0.50;;;25.70;40.10;;;;;;2569173;53;20937;-68
2022/08/08 09:27:07;;;;;;;1.65;0.50;;;25.80;40.20;;;;;;2342897;55;20980;-70
2022/08/08 09:33:05;;;;;;;1.42;0.50;;;25.90;40.00;;;;;;2588384;53;20943;-70
2022/08/08 09:35:32;;;;;;;0.77;0.40;;;26.30;40.00;;;;;;2315378;54;20959;-68
2022/08/08 09:38:02;;;;;;;0.77;0.32;;;26.30;39.70;;;;;;2318639;54;21434;-70
2022/08/08 09:40:30;;;;;;;1.67;0.60;;;26.40;39.40;;;;;;2320442;53;20995;-66
2022/08/08 09:45:03;;;;;;;1.95;0.50;;;26.50;39.30;;;;;;2494472;54;20955;-67
2022/08/08 09:47:38;;;;;;;3.03;0.60;;;26.80;39.30;;;;;;2330918;54;20957;-68
2022/08/08 09:50:12;;;;;;;1.17;0.50;;;26.90;39.00;;;;;;2444960;53;20946;-68
2022/08/08 09:52:42;;;;;;;1.20;0.50;;;27.00;38.80;;;;;;2342353;55;21513;-67
2022/08/08 09:55:09;;;;;;;1.52;0.60;;;27.10;38.70;;;;;;2561014;53;21456;-67
2022/08/08 09:57:37;;;;;;;2.65;0.60;;;27.20;38.60;;;;;;2324028;54;20953;-67
2022/08/08 10:00:10;;;;;;;1.20;0.60;;;27.30;38.40;;;;;;2344208;54;21023;-67
2022/08/08 10:03:07;;;;;;;1.00;0.40;;;27.40;38.50;;;;;;2330820;54;21101;-68
2022/08/08 10:05:35;;;;;;;1.37;0.60;;;27.50;38.40;;;;;;2588605;53;20914;-68
2022/08/08 10:08:02;;;;;;;1.77;0.60;;;27.60;38.10;;;;;;2377885;53;21074;-67
2022/08/08 10:10:30;;;;;;;3.12;0.68;;;27.70;37.70;;;;;;2342558;55;21021;-68
2022/08/08 10:13:44;;;;;;;2.55;0.70;;;27.80;37.70;;;;;;2342297;55;20949;-69
2022/08/08 10:16:11;;;;;;;1.42;0.60;;;27.90;38.10;;;;;;2429938;54;20998;-67
2022/08/08 10:18:38;;;;;;;0.93;0.50;;;28.00;37.30;;;;;;2317390;54;20947;-69
2022/08/08 10:21:12;;;;;;;2.83;0.85;;;28.10;37.10;;;;;;2474890;54;20974;-67
2022/08/08 10:23:49;;;;;;;1.40;0.60;;;28.10;36.90;;;;;;2308148;54;20922;-67
2022/08/08 10:26:27;;;;;;;2.22;0.73;;;28.30;36.70;;;;;;2312117;54;21014;-69
2022/08/08 10:29:05;;;;;;;1.12;0.60;;;28.40;36.60;;;;;;2316795;54;20937;-69
2022/08/08 10:34:19;;;;;;;1.02;0.50;;;28.50;36.50;;;;;;2319390;54;21039;-67
2022/08/08 10:36:46;;;;;;;1.15;0.52;;;28.60;36.40;;;;;;2523848;54;21572;-69
2022/08/08 10:39:21;;;;;;;1.37;0.52;;;28.70;36.20;;;;;;2316951;54;21822;-67
2022/08/08 10:42:08;;;;;;;2.17;0.88;;;28.80;35.70;;;;;;2558571;54;20927;-68
2022/08/08 10:44:36;;;;;;;2.03;0.47;;;28.80;35.60;;;;;;2317662;54;21793;-69
2022/08/08 10:47:14;;;;;;;2.20;0.55;;;28.90;35.80;;;;;;2354166;54;20999;-69
2022/08/08 10:49:42;;;;;;;1.25;0.50;;;29.00;35.50;;;;;;2299286;55;20998;-70
2022/08/08 10:52:09;;;;;;;0.80;0.37;;;29.10;35.60;;;;;;2410059;55;21293;-66
2022/08/08 10:54:35;;;;;;;1.70;0.73;;;29.10;35.60;;;;;;2317198;55;20935;-69
2022/08/08 10:57:06;;;;;;;1.45;0.50;;;29.20;35.50;;;;;;2557389;53;21394;-68
2022/08/08 10:59:33;;;;;;;1.58;0.60;;;29.30;35.30;;;;;;2320867;53;21472;-67
2022/08/08 11:02:00;;;;;;;1.17;0.50;;;29.40;35.40;;;;;;2388180;53;21725;-67
2022/08/08 11:04:27;;;;;;;2.85;0.60;;;29.50;35.10;;;;;;2344484;54;21034;-68
2022/08/08 11:07:00;;;;;;;1.73;0.60;;;29.50;34.90;;;;;;2350953;53;20933;-69
2022/08/08 11:09:28;;;;;;;1.98;0.68;;;29.60;34.60;;;;;;2345151;54;21312;-69
2022/08/08 11:11:57;;;;;;;1.77;0.50;;;29.70;34.90;;;;;;2590699;53;21002;-67
2022/08/08 11:14:23;;;;;;;1.27;0.57;;;29.80;34.70;;;;;;2344537;55;20922;-68
2022/08/08 11:16:51;;;;;;;1.35;0.50;;;29.90;34.50;;;;;;2294996;55;21456;-70
2022/08/08 11:19:19;;;;;;;1.15;0.50;;;29.90;34.40;;;;;;2316971;54;21070;-68
2022/08/08 11:21:45;;;;;;;1.85;0.50;;;30.00;34.00;;;;;;2557884;53;21094;-70
2022/08/08 11:24:12;;;;;;;2.08;0.60;;;30.10;33.80;;;;;;2557377;54;20988;-68
2022/08/08 11:26:41;;;;;;;1.52;0.50;;;30.10;33.80;;;;;;2361795;54;20967;-69
2022/08/08 11:32:40;;;;;;;2.15;0.70;;;30.30;33.10;;;;;;2331876;53;21823;-70
2022/08/08 11:35:13;;;;;;;1.33;0.47;;;30.40;33.40;;;;;;2589713;53;21361;-67
2022/08/08 11:37:40;;;;;;;2.15;0.50;;;30.50;33.00;;;;;;2333929;54;20942;-70
2022/08/08 11:40:23;;;;;;;1.60;0.50;;;30.50;33.20;;;;;;2340155;54;21049;-67
2022/08/08 11:42:50;;;;;;;1.80;0.85;;;30.60;32.80;;;;;;2323554;54;20957;-67
2022/08/08 11:45:19;;;;;;;1.25;0.50;;;30.70;33.00;;;;;;2322914;54;20966;-70
2022/08/08 11:47:48;;;;;;;1.17;0.45;;;30.80;32.90;;;;;;2334095;54;20987;-68
2022/08/08 11:50:18;;;;;;;1.42;0.60;;;30.80;32.90;;;;;;2393268;54;20907;-69
2022/08/08 11:52:45;;;;;;;1.55;0.60;;;30.80;32.60;;;;;;2565464;53;21435;-69
2022/08/08 11:55:27;;;;;;;1.20;0.50;;;30.90;32.50;;;;;;2344501;54;21006;-67
2022/08/08 11:58:07;;;;;;;1.80;0.70;;;31.00;31.90;;;;;;2344822;54;20954;-67
2022/08/08 12:00:46;;;;;;;1.20;0.50;;;31.10;31.80;;;;;;2325152;55;20966;-70
2022/08/08 12:03:26;;;;;;;1.35;0.50;;;31.20;32.00;;;;;;2591236;53;21085;-68
2022/08/08 12:05:53;;;;;;;1.20;0.50;;;31.20;32.10;;;;;;2343952;54;20954;-70
2022/08/08 12:08:36;;;;;;;1.80;0.50;;;31.30;32.20;;;;;;2452813;54;21002;-68
2022/08/08 12:11:17;;;;;;;1.65;0.70;;;31.40;31.60;;;;;;2591045;53;20991;-68
2022/08/08 12:13:44;;;;;;;1.83;0.60;;;31.40;31.50;;;;;;2344393;54;20968;-70
2022/08/08 12:16:20;;;;;;;1.05;0.50;;;31.50;31.50;;;;;;2349439;53;20938;-67
2022/08/08 12:18:51;;;;;;;1.15;0.40;;;31.50;30.90;;;;;;2590324;53;20933;-68
2022/08/08 12:21:29;;;;;;;1.80;0.60;;;31.60;30.80;;;;;;2590579;53;20987;-70
2022/08/08 12:24:18;;;;;;;1.67;0.60;;;31.70;30.60;;;;;;2344083;54;20973;-68
2022/08/08 12:26:51;;;;;;;1.98;0.70;;;31.70;30.60;;;;;;2335504;54;20939;-69
2022/08/08 12:29:36;;;;;;;3.20;0.77;;;31.80;30.60;;;;;;2579598;53;20942;-68
2022/08/08 12:32:08;;;;;;;1.35;0.57;;;31.80;30.30;;;;;;2343304;54;21281;-70
2022/08/08 12:35:20;;;;;;;1.17;0.60;;;31.90;30.40;;;;;;2344530;54;20955;-68
2022/08/08 12:37:59;;;;;;;1.00;0.43;;;31.90;30.40;;;;;;2344318;54;20958;-68
2022/08/08 12:40:41;;;;;;;1.95;0.60;;;32.00;30.20;;;;;;2344983;55;21034;-70
2022/08/08 12:43:09;;;;;;;1.33;0.50;;;32.00;30.00;;;;;;2344266;54;20962;-68
2022/08/08 12:45:37;;;;;;;1.50;0.68;;;32.10;30.20;;;;;;2344536;55;21935;-69
2022/08/08 12:48:17;;;;;;;1.20;0.50;;;32.10;30.20;;;;;;2573001;53;20989;-72
2022/08/08 12:50:44;;;;;;;1.30;0.50;;;32.20;30.20;;;;;;2319594;54;21431;-68
2022/08/08 12:53:24;;;;;;;0.75;0.40;;;32.20;30.00;;;;;;2338887;54;21065;-72
2022/08/08 12:55:52;;;;;;;1.30;0.60;;;32.30;29.80;;;;;;2325380;54;21012;-71
2022/08/08 12:58:46;;;;;;;1.17;0.50;;;32.40;30.00;;;;;;2358093;53;20973;-71
2022/08/08 13:01:13;;;;;;;1.48;0.70;;;32.50;29.70;;;;;;2570837;53;20946;-68
2022/08/08 13:03:47;;;;;;;2.65;0.60;;;32.50;29.80;;;;;;2316185;54;20953;-70
2022/08/08 13:06:16;;;;;;;1.10;0.50;;;32.50;29.70;;;;;;2343558;55;20912;-69
2022/08/08 13:08:50;;;;;;;2.58;0.90;;;32.60;29.70;;;;;;2344613;55;20948;-69
2022/08/08 13:11:24;;;;;;;1.90;0.80;;;32.60;29.40;;;;;;2590622;53;20945;-69
2022/08/08 13:14:01;;;;;;;1.62;0.70;;;32.60;28.90;;;;;;2344272;54;21092;-68
2022/08/08 13:16:56;;;;;;;1.45;0.52;;;32.60;29.00;;;;;;2510009;53;20961;-69
2022/08/08 13:19:22;;;;;;;1.90;0.62;;;32.70;28.80;;;;;;2339163;54;20925;-70
2022/08/08 13:21:50;;;;;;;1.15;0.50;;;32.70;28.90;;;;;;2350750;53;20992;-69
2022/08/08 13:24:17;;;;;;;2.25;0.77;;;32.70;28.90;;;;;;2320937;54;21068;-71
2022/08/08 13:26:45;;;;;;;1.77;0.65;;;32.70;28.90;;;;;;2529841;54;20957;-68
2022/08/08 13:29:13;;;;;;;3.53;0.60;;;32.70;28.80;;;;;;2320886;54;20980;-67
2022/08/08 13:31:46;;;;;;;1.23;0.60;;;32.70;28.80;;;;;;2353502;53;21028;-68
2022/08/08 13:34:27;;;;;;;1.02;0.43;;;32.80;28.50;;;;;;2335997;54;20925;-68
2022/08/08 13:36:54;;;;;;;1.20;0.50;;;32.80;28.60;;;;;;2467881;53;20944;-67
2022/08/08 13:39:22;;;;;;;1.67;0.55;;;32.80;28.70;;;;;;2590452;53;20920;-70
2022/08/08 13:41:49;;;;;;;1.15;0.60;;;32.80;28.60;;;;;;2566538;53;21471;-67
2022/08/08 13:44:15;;;;;;;2.75;0.70;;;32.90;28.60;;;;;;2368484;54;20928;-69
2022/08/08 13:47:03;;;;;;;1.58;0.60;;;32.90;28.60;;;;;;2349482;53;21517;-68
2022/08/08 13:49:30;;;;;;;1.50;0.60;;;33.00;28.30;;;;;;2339513;54;21710;-70
2022/08/08 13:52:04;;;;;;;2.53;0.57;;;33.00;28.40;;;;;;2406451;53;21850;-68
2022/08/08 13:54:32;;;;;;;1.83;0.60;;;33.00;28.40;;;;;;2343824;54;20953;-70
2022/08/08 13:57:14;;;;;;;1.80;0.70;;;33.00;28.40;;;;;;2590387;53;21336;-68
2022/08/08 13:59:45;;;;;;;1.45;0.60;;;33.10;28.20;;;;;;2344198;54;20936;-68
2022/08/08 14:02:20;;;;;;;1.15;0.50;;;33.10;28.10;;;;;;2590571;53;21055;-70
2022/08/08 14:04:58;;;;;;;1.17;0.50;;;33.10;27.90;;;;;;2348438;53;20917;-68
2022/08/08 14:07:27;;;;;;;1.40;0.70;;;33.20;28.00;;;;;;2359946;54;21466;-69
2022/08/08 14:10:04;;;;;;;5.37;0.60;;;33.20;27.90;;;;;;2313764;54;21135;-70
2022/08/08 14:12:36;;;;;;;2.53;0.60;;;33.20;27.70;;;;;;2569518;53;21466;-67
2022/08/08 14:15:03;;;;;;;1.65;0.73;;;33.30;27.80;;;;;;2344620;54;20988;-67
2022/08/08 14:17:35;;;;;;;1.60;0.70;;;33.30;27.80;;;;;;2590603;53;21056;-67
2022/08/08 14:20:08;;;;;;;1.65;0.55;;;33.40;27.50;;;;;;2343199;54;21017;-68
2022/08/08 14:22:39;;;;;;;1.90;0.70;;;33.40;27.60;;;;;;2567405;53;21004;-67
2022/08/08 14:25:07;;;;;;;1.10;0.50;;;33.40;27.30;;;;;;2344810;55;20940;-69
2022/08/08 14:27:38;;;;;;;1.20;0.50;;;33.40;27.50;;;;;;2439351;53;21012;-68
2022/08/08 14:30:15;;;;;;;1.33;0.60;;;33.50;27.60;;;;;;2558390;53;21422;-68
2022/08/08 14:32:53;;;;;;;3.20;0.70;;;33.50;27.40;;;;;;2423240;53;21043;-70